メインページ
METAR-TAF:

METAR-TAF

空港 :

レゾリュート, ヌナブト準州, カナダ

緯度: 74-43N, 経度: 094-59W, 海抜: 67m

現時点の気象観測

当レポートは53分前の03:00(UTC)に作成
北西の風 16kt
気温 -9°C
湿度 92%
気圧 1017 hPa
視程: 24.1km
高度700ftの曇り
小雪

METAR: CYRB 220300Z 32016KT 15SM -SN OVC007 M09/M10 A3003 RMK ST8 SN VRY LGT SLP179

時間: 22:53 (03:53 UTC)

予報

当レポートは4時間15分前の23:38(UTC)に作成
予報は22日の 00時(UTC)から 22日の 24時(UTC)まで有効
北/北西の風 15kt
視程: 10km
高度700ftの雲はほとんどない
高度1500ftの雲はほとんどない
22日の 00時(UTC)から 22日の 12時(UTC)まで一時的に
高度700ftの千切れ雲あり
高度1500ftの千切れ雲あり
22日の 1200時(UTC)から
北/北西の風 12kt
視程: 10km
高度1500ftの雲は散在している
22日の 12時(UTC)から 22日の 24時(UTC)まで一時的に
高度1500ftの千切れ雲あり

TAF: CYRB 212338Z 2200/2224 33015KT P6SM FEW007 FEW015 TEMPO 2200/2212 BKN007 BKN015 FM221200 34012KT P6SM SCT015 TEMPO 2212/2224 BKN015 RMK NXT FCST BY 220600Z

4,000以上の空港の気象観測と天気予報(METAR報とTAF報)

利用可能な観測所は地図上に黄色い丸と赤い丸で示す。

丸の上にカーソルを重ねると観測所名を参照できる。

次にクリックすると気象観測と天気予報を参照できる。

マップの切り替え:黒色「×」印の緑ボタンをクリックして拡大、「-」印の緑ボタンをクリックして縮小、緑色の三角印をクリックして隣りの地図に切り替え


METAR-TAF: